Aberdeen Regional Airport
KABR : now visible

Airfield :











YOU CAN JOIN US ON...

 
LOGIN :

Register | Disclaimer

   EN    FR    IT 

 









Legend :    VFR   Marginal VFR   IFR   Intensive IFR   Very Intensive IFR
Visi :
Ceiling :
>= 8 km
>= 3000ft
5 to 8 km
1000 to 3000 ft
1500m to 5 km
500 to 1000 ft
800 to 1500m
200 to 500 ft
< 800m
< 200 ft
Symbols :   Thunderstorms  Fog  Heavy snow  Heavy precipitations  Wind > 20 kt






- Airport Elevation : 1302 ft
- IATA code : ABR


KABR - Aberdeen Regional

CURRENT METAR :
  • 171128Z AUTO 32017G23KT 10SM OVC016 08/06 A2971 RMK AO2 T00780056

EXPIRED METARs :
  • 171102Z AUTO 32014G21KT 10SM BKN014 OVC022 08/06 A2970 RMK AO2 T00830061
  • 171031Z AUTO 30006KT 10SM SCT014 OVC020 07/06 A2970 RMK AO2 T00720061
  • 170953Z AUTO 31007KT 10SM OVC012 07/06 A2968 RMK AO2 SLP057 T00720056
  • 170944Z AUTO 32007KT 10SM FEW006 OVC012 07/06 A2968 RMK AO2 T00720061
  • 170916Z AUTO 31008KT 5SM BR BKN007 OVC015 07/06 A2968 RMK AO2 CIG 005V010 T00720061
  • 170853Z AUTO 33007KT 10SM FEW007 OVC018 07/06 A2966 RMK AO2 RAE36 SLP049 P0002 60031 T00720061 53024
  • 170825Z AUTO 34008KT 10SM -RA SCT007 BKN020 OVC070 07/06 A2964 RMK AO2 P0002 T00720061
  • 170808Z AUTO 35008KT 10SM -RA FEW006 BKN042 OVC070 07/06 A2963 RMK AO2 P0001 T00720056
  • 170753Z AUTO 34008KT 10SM -RA SCT005 BKN023 OVC034 07/06 A2962 RMK AO2 SLP036 P0009 T00720056
  • 170653Z AUTO 34011KT 8SM RA FEW007 OVC050 07/06 A2961 RMK AO2 SLP031 P0020 T00720056

TAF KABR
Valid from the 17 at 12:00 until the 18 at 12:00 UTC


171120Z 1712/1812 31011G19KT P6SM VCSH BKN014
FM171500 31017G26KT P6SM SCT070
FM171900 30016G25KT P6SM FEW160
FM172200 29015G22KT P6SM SCT170
FM180100 28011KT P6SM SCT140
KZMP FIR / North America



MET'MAP, your aeronautical weather chart ! - Copyright ORBIFLY December 2007 - Disclaimer

ORBIFLY MET'MAP TEAM :

Programming & Development : Alexandra Zaïnal
Original concept : Baudouin d'Aumeries
Technical & hardware support : Manuel Goepfert
Assistance : Marc-Olivier Méhu




SOURCES & CREDITS :

   NOAA       Earth
Advisory